sensor_id;sensor_type;location;lat;lon;timestamp;temperature;humidity
64918;HTU21D;52176;44.858;38.372;2023-03-26T00:00:59;9.24;83.84
64918;HTU21D;52176;44.858;38.372;2023-03-26T00:03:25;9.24;83.84
64918;HTU21D;52176;44.858;38.372;2023-03-26T00:06:13;9.25;83.87
64918;HTU21D;52176;44.858;38.372;2023-03-26T00:08:41;9.24;83.87
64918;HTU21D;52176;44.858;38.372;2023-03-26T00:11:09;9.23;83.94
64918;HTU21D;52176;44.858;38.372;2023-03-26T00:13:36;9.21;83.91
64918;HTU21D;52176;44.858;38.372;2023-03-26T00:16:02;9.21;83.97
64918;HTU21D;52176;44.858;38.372;2023-03-26T00:18:28;9.22;84.00
64918;HTU21D;52176;44.858;38.372;2023-03-26T00:20:58;9.21;84.04
64918;HTU21D;52176;44.858;38.372;2023-03-26T00:23:25;9.20;84.04
64918;HTU21D;52176;44.858;38.372;2023-03-26T00:25:51;9.21;84.07
64918;HTU21D;52176;44.858;38.372;2023-03-26T00:28:18;9.20;84.10
64918;HTU21D;52176;44.858;38.372;2023-03-26T00:30:58;9.20;84.11
64918;HTU21D;52176;44.858;38.372;2023-03-26T00:33:24;9.19;84.09
64918;HTU21D;52176;44.858;38.372;2023-03-26T00:35:55;9.18;84.19
64918;HTU21D;52176;44.858;38.372;2023-03-26T00:38:24;9.17;84.18
64918;HTU21D;52176;44.858;38.372;2023-03-26T00:40:51;9.14;84.23
64918;HTU21D;52176;44.858;38.372;2023-03-26T00:43:18;9.10;84.27
64918;HTU21D;52176;44.858;38.372;2023-03-26T00:45:50;9.11;84.39
64918;HTU21D;52176;44.858;38.372;2023-03-26T00:48:17;9.10;84.32
64918;HTU21D;52176;44.858;38.372;2023-03-26T00:50:45;9.10;84.39
64918;HTU21D;52176;44.858;38.372;2023-03-26T00:53:12;9.07;84.40
64918;HTU21D;52176;44.858;38.372;2023-03-26T00:55:40;9.06;84.51
64918;HTU21D;52176;44.858;38.372;2023-03-26T00:58:06;9.05;84.55
64918;HTU21D;52176;44.858;38.372;2023-03-26T01:00:41;9.04;84.58
64918;HTU21D;52176;44.858;38.372;2023-03-26T01:03:11;9.03;84.61
64918;HTU21D;52176;44.858;38.372;2023-03-26T01:08:21;9.03;84.65
64918;HTU21D;52176;44.858;38.372;2023-03-26T01:10:48;9.04;84.62
64918;HTU21D;52176;44.858;38.372;2023-03-26T01:13:19;9.03;84.65
64918;HTU21D;52176;44.858;38.372;2023-03-26T01:15:47;9.03;84.68
64918;HTU21D;52176;44.858;38.372;2023-03-26T01:18:23;9.03;84.73
64918;HTU21D;52176;44.858;38.372;2023-03-26T01:21:00;9.04;84.68
64918;HTU21D;52176;44.858;38.372;2023-03-26T01:23:45;9.04;84.71
64918;HTU21D;52176;44.858;38.372;2023-03-26T01:29:01;9.03;84.73
64918;HTU21D;52176;44.858;38.372;2023-03-26T01:34:23;9.02;84.74
64918;HTU21D;52176;44.858;38.372;2023-03-26T01:37:50;9.02;84.73
64918;HTU21D;52176;44.858;38.372;2023-03-26T01:40:26;9.02;84.68
64918;HTU21D;52176;44.858;38.372;2023-03-26T01:43:08;9.02;84.71
64918;HTU21D;52176;44.858;38.372;2023-03-26T01:45:37;9.03;84.78
64918;HTU21D;52176;44.858;38.372;2023-03-26T01:48:05;9.02;84.81
64918;HTU21D;52176;44.858;38.372;2023-03-26T01:50:31;9.02;84.87
64918;HTU21D;52176;44.858;38.372;2023-03-26T01:52:57;9.02;84.91
64918;HTU21D;52176;44.858;38.372;2023-03-26T02:03:45;9.01;85.00
64918;HTU21D;52176;44.858;38.372;2023-03-26T02:06:27;9.02;85.00
64918;HTU21D;52176;44.858;38.372;2023-03-26T02:09:00;9.01;85.03
64918;HTU21D;52176;44.858;38.372;2023-03-26T02:11:26;9.00;85.00
64918;HTU21D;52176;44.858;38.372;2023-03-26T02:13:52;8.96;85.09
64918;HTU21D;52176;44.858;38.372;2023-03-26T02:16:19;8.95;85.17
64918;HTU21D;52176;44.858;38.372;2023-03-26T02:18:47;8.93;85.27
64918;HTU21D;52176;44.858;38.372;2023-03-26T02:21:18;8.95;85.35
64918;HTU21D;52176;44.858;38.372;2023-03-26T02:23:48;8.95;85.35
64918;HTU21D;52176;44.858;38.372;2023-03-26T02:26:18;8.96;85.32
64918;HTU21D;52176;44.858;38.372;2023-03-26T02:28:56;8.96;85.35
64918;HTU21D;52176;44.858;38.372;2023-03-26T02:31:23;8.97;85.38
64918;HTU21D;52176;44.858;38.372;2023-03-26T02:33:53;9.00;85.42
64918;HTU21D;52176;44.858;38.372;2023-03-26T02:36:21;9.01;85.42
64918;HTU21D;52176;44.858;38.372;2023-03-26T02:38:55;9.00;85.41
64918;HTU21D;52176;44.858;38.372;2023-03-26T02:41:26;9.00;85.45
64918;HTU21D;52176;44.858;38.372;2023-03-26T02:44:02;8.98;85.49
64918;HTU21D;52176;44.858;38.372;2023-03-26T02:46:47;9.00;85.50
64918;HTU21D;52176;44.858;38.372;2023-03-26T02:49:33;9.01;85.48
64918;HTU21D;52176;44.858;38.372;2023-03-26T02:52:00;9.01;85.50
64918;HTU21D;52176;44.858;38.372;2023-03-26T02:54:26;9.01;85.59
64918;HTU21D;52176;44.858;38.372;2023-03-26T02:56:52;9.00;85.60
64918;HTU21D;52176;44.858;38.372;2023-03-26T02:59:47;8.98;85.61
64918;HTU21D;52176;44.858;38.372;2023-03-26T03:02:41;8.96;85.59
64918;HTU21D;52176;44.858;38.372;2023-03-26T03:05:29;8.96;85.66
64918;HTU21D;52176;44.858;38.372;2023-03-26T03:08:17;8.96;85.70
64918;HTU21D;52176;44.858;38.372;2023-03-26T03:11:01;8.96;85.76
64918;HTU21D;52176;44.858;38.372;2023-03-26T03:13:37;8.96;85.77
64918;HTU21D;52176;44.858;38.372;2023-03-26T03:16:04;8.97;85.82
64918;HTU21D;52176;44.858;38.372;2023-03-26T03:18:30;9.00;85.85
64918;HTU21D;52176;44.858;38.372;2023-03-26T03:20:56;9.00;85.92
64918;HTU21D;52176;44.858;38.372;2023-03-26T03:23:23;9.00;85.95
64918;HTU21D;52176;44.858;38.372;2023-03-26T03:25:56;9.02;85.98
64918;HTU21D;52176;44.858;38.372;2023-03-26T03:28:23;9.02;86.00
64918;HTU21D;52176;44.858;38.372;2023-03-26T03:30:50;9.01;86.03
64918;HTU21D;52176;44.858;38.372;2023-03-26T03:33:29;9.01;86.00
64918;HTU21D;52176;44.858;38.372;2023-03-26T03:35:55;9.01;86.10
64918;HTU21D;52176;44.858;38.372;2023-03-26T03:38:22;9.02;86.14
64918;HTU21D;52176;44.858;38.372;2023-03-26T03:40:49;9.03;86.20
64918;HTU21D;52176;44.858;38.372;2023-03-26T03:43:17;9.03;86.22
64918;HTU21D;52176;44.858;38.372;2023-03-26T03:45:59;9.05;86.22
64918;HTU21D;52176;44.858;38.372;2023-03-26T03:48:48;9.06;86.17
64918;HTU21D;52176;44.858;38.372;2023-03-26T03:51:19;9.07;86.19
64918;HTU21D;52176;44.858;38.372;2023-03-26T03:53:51;9.15;89.34
64918;HTU21D;52176;44.858;38.372;2023-03-26T03:56:40;9.36;90.42
64918;HTU21D;52176;44.858;38.372;2023-03-26T03:59:28;9.48;89.03
64918;HTU21D;52176;44.858;38.372;2023-03-26T04:01:55;9.52;89.76
64918;HTU21D;52176;44.858;38.372;2023-03-26T04:04:53;9.66;89.54
64918;HTU21D;52176;44.858;38.372;2023-03-26T04:07:23;9.79;89.21
64918;HTU21D;52176;44.858;38.372;2023-03-26T04:10:05;9.92;88.16
64918;HTU21D;52176;44.858;38.372;2023-03-26T04:12:50;9.89;87.60
64918;HTU21D;52176;44.858;38.372;2023-03-26T04:15:18;9.80;87.10
64918;HTU21D;52176;44.858;38.372;2023-03-26T04:17:45;9.68;88.76
64918;HTU21D;52176;44.858;38.372;2023-03-26T04:20:13;9.78;89.25
64918;HTU21D;52176;44.858;38.372;2023-03-26T04:22:42;9.88;88.18
64918;HTU21D;52176;44.858;38.372;2023-03-26T04:25:10;9.85;89.15
64918;HTU21D;52176;44.858;38.372;2023-03-26T04:27:46;9.93;89.21
64918;HTU21D;52176;44.858;38.372;2023-03-26T04:30:17;10.06;88.10
64918;HTU21D;52176;44.858;38.372;2023-03-26T04:32:50;10.07;87.60
64918;HTU21D;52176;44.858;38.372;2023-03-26T04:35:16;9.98;87.20
64918;HTU21D;52176;44.858;38.372;2023-03-26T04:37:48;9.94;87.13
64918;HTU21D;52176;44.858;38.372;2023-03-26T04:40:22;9.84;86.92
64918;HTU21D;52176;44.858;38.372;2023-03-26T04:43:01;9.80;88.81
64918;HTU21D;52176;44.858;38.372;2023-03-26T04:45:57;9.92;89.15
64918;HTU21D;52176;44.858;38.372;2023-03-26T04:48:26;10.01;88.73
64918;HTU21D;52176;44.858;38.372;2023-03-26T04:50:52;10.10;88.57
64918;HTU21D;52176;44.858;38.372;2023-03-26T04:53:20;10.20;88.30
64918;HTU21D;52176;44.858;38.372;2023-03-26T04:56:21;10.28;87.88
64918;HTU21D;52176;44.858;38.372;2023-03-26T04:59:27;10.43;86.75
64918;HTU21D;52176;44.858;38.372;2023-03-26T05:02:02;10.38;86.40
64918;HTU21D;52176;44.858;38.372;2023-03-26T05:04:33;10.22;87.41
64918;HTU21D;52176;44.858;38.372;2023-03-26T05:07:01;10.28;87.61
64918;HTU21D;52176;44.858;38.372;2023-03-26T05:09:53;10.36;87.35
64918;HTU21D;52176;44.858;38.372;2023-03-26T05:12:32;10.45;87.15
64918;HTU21D;52176;44.858;38.372;2023-03-26T05:15:04;10.57;86.72
64918;HTU21D;52176;44.858;38.372;2023-03-26T05:17:49;10.65;86.22
64918;HTU21D;52176;44.858;38.372;2023-03-26T05:20:26;10.79;85.42
64918;HTU21D;52176;44.858;38.372;2023-03-26T05:22:52;10.74;85.06
64918;HTU21D;52176;44.858;38.372;2023-03-26T05:25:23;10.60;86.20
64918;HTU21D;52176;44.858;38.372;2023-03-26T05:27:50;10.68;86.14
64918;HTU21D;52176;44.858;38.372;2023-03-26T05:30:18;10.75;85.87
64918;HTU21D;52176;44.858;38.372;2023-03-26T05:32:48;10.87;85.55
64918;HTU21D;52176;44.858;38.372;2023-03-26T05:35:20;10.97;85.40
64918;HTU21D;52176;44.858;38.372;2023-03-26T05:37:47;11.10;84.79
64918;HTU21D;52176;44.858;38.372;2023-03-26T05:40:16;11.22;84.30
64918;HTU21D;52176;44.858;38.372;2023-03-26T05:43:03;11.36;83.38
64918;HTU21D;52176;44.858;38.372;2023-03-26T05:45:35;11.51;82.78
64918;HTU21D;52176;44.858;38.372;2023-03-26T05:48:30;11.45;83.22
64918;HTU21D;52176;44.858;38.372;2023-03-26T05:50:57;11.56;82.52
64918;HTU21D;52176;44.858;38.372;2023-03-26T05:53:25;11.68;81.95
64918;HTU21D;52176;44.858;38.372;2023-03-26T05:56:10;11.83;81.52
64918;HTU21D;52176;44.858;38.372;2023-03-26T05:58:55;11.97;81.16
64918;HTU21D;52176;44.858;38.372;2023-03-26T06:01:41;12.17;80.54
64918;HTU21D;52176;44.858;38.372;2023-03-26T06:04:41;12.13;80.75
64918;HTU21D;52176;44.858;38.372;2023-03-26T06:07:29;12.36;80.14
64918;HTU21D;52176;44.858;38.372;2023-03-26T06:10:17;12.33;79.89
64918;HTU21D;52176;44.858;38.372;2023-03-26T06:12:43;12.31;79.91
64918;HTU21D;52176;44.858;38.372;2023-03-26T06:15:10;12.26;80.01
64918;HTU21D;52176;44.858;38.372;2023-03-26T06:18:05;12.20;80.11
64918;HTU21D;52176;44.858;38.372;2023-03-26T06:20:36;12.19;80.28
64918;HTU21D;52176;44.858;38.372;2023-03-26T06:23:08;12.16;80.28
64918;HTU21D;52176;44.858;38.372;2023-03-26T06:25:54;12.18;80.31
64918;HTU21D;52176;44.858;38.372;2023-03-26T06:28:44;12.23;80.27
64918;HTU21D;52176;44.858;38.372;2023-03-26T06:31:23;12.29;80.20
64918;HTU21D;52176;44.858;38.372;2023-03-26T06:33:55;12.28;80.19
64918;HTU21D;52176;44.858;38.372;2023-03-26T06:36:21;12.29;80.19
64918;HTU21D;52176;44.858;38.372;2023-03-26T06:38:49;12.33;80.24
64918;HTU21D;52176;44.858;38.372;2023-03-26T06:41:15;12.44;80.19
64918;HTU21D;52176;44.858;38.372;2023-03-26T06:44:13;12.61;79.97
64918;HTU21D;52176;44.858;38.372;2023-03-26T06:47:05;12.72;79.72
64918;HTU21D;52176;44.858;38.372;2023-03-26T06:49:51;12.85;79.57
64918;HTU21D;52176;44.858;38.372;2023-03-26T06:52:40;12.99;79.34
64918;HTU21D;52176;44.858;38.372;2023-03-26T06:55:32;13.09;79.14
64918;HTU21D;52176;44.858;38.372;2023-03-26T06:58:27;13.19;79.05
64918;HTU21D;52176;44.858;38.372;2023-03-26T07:01:12;13.27;78.88
64918;HTU21D;52176;44.858;38.372;2023-03-26T07:03:56;13.26;78.45
64918;HTU21D;52176;44.858;38.372;2023-03-26T07:06:41;13.44;77.47
64918;HTU21D;52176;44.858;38.372;2023-03-26T07:09:25;13.63;77.10
64918;HTU21D;52176;44.858;38.372;2023-03-26T07:12:13;13.52;76.64
64918;HTU21D;52176;44.858;38.372;2023-03-26T07:14:58;13.68;76.19
64918;HTU21D;52176;44.858;38.372;2023-03-26T07:18:00;13.94;75.70
64918;HTU21D;52176;44.858;38.372;2023-03-26T07:20:31;14.15;75.34
64918;HTU21D;52176;44.858;38.372;2023-03-26T07:22:58;14.41;74.86
64918;HTU21D;52176;44.858;38.372;2023-03-26T07:25:50;14.51;74.82
64918;HTU21D;52176;44.858;38.372;2023-03-26T07:28:39;14.43;74.94
64918;HTU21D;52176;44.858;38.372;2023-03-26T07:31:51;14.38;75.12
64918;HTU21D;52176;44.858;38.372;2023-03-26T07:34:41;14.44;75.41
64918;HTU21D;52176;44.858;38.372;2023-03-26T07:44:22;14.50;75.06
64918;HTU21D;52176;44.858;38.372;2023-03-26T07:47:00;14.58;75.36
64918;HTU21D;52176;44.858;38.372;2023-03-26T07:49:33;14.84;75.38
64918;HTU21D;52176;44.858;38.372;2023-03-26T07:52:20;15.17;75.06
64918;HTU21D;52176;44.858;38.372;2023-03-26T07:54:54;15.45;74.49
64918;HTU21D;52176;44.858;38.372;2023-03-26T08:00:41;16.16;69.50
64918;HTU21D;52176;44.858;38.372;2023-03-26T08:11:54;18.70;61.19
64918;HTU21D;52176;44.858;38.372;2023-03-26T08:17:02;20.10;61.64
64918;HTU21D;52176;44.858;38.372;2023-03-26T08:22:39;21.31;61.32
64918;HTU21D;52176;44.858;38.372;2023-03-26T08:25:06;21.85;60.54
64918;HTU21D;52176;44.858;38.372;2023-03-26T08:27:37;21.85;55.43
64918;HTU21D;52176;44.858;38.372;2023-03-26T08:32:33;22.92;52.17
64918;HTU21D;52176;44.858;38.372;2023-03-26T08:34:59;22.95;50.49
64918;HTU21D;52176;44.858;38.372;2023-03-26T08:37:25;22.48;50.37
64918;HTU21D;52176;44.858;38.372;2023-03-26T08:39:52;21.89;52.32
64918;HTU21D;52176;44.858;38.372;2023-03-26T09:16:44;24.02;49.05
64918;HTU21D;52176;44.858;38.372;2023-03-26T09:27:22;23.11;48.24
64918;HTU21D;52176;44.858;38.372;2023-03-26T09:42:53;23.43;45.67
64918;HTU21D;52176;44.858;38.372;2023-03-26T09:51:02;23.47;47.76
64918;HTU21D;52176;44.858;38.372;2023-03-26T10:06:19;24.74;42.13
64918;HTU21D;52176;44.858;38.372;2023-03-26T10:16:26;24.99;42.35
64918;HTU21D;52176;44.858;38.372;2023-03-26T10:19:01;24.82;42.55
64918;HTU21D;52176;44.858;38.372;2023-03-26T10:21:46;24.98;42.47
64918;HTU21D;52176;44.858;38.372;2023-03-26T10:29:52;26.18;42.24
64918;HTU21D;52176;44.858;38.372;2023-03-26T10:50:31;24.75;41.72
64918;HTU21D;52176;44.858;38.372;2023-03-26T10:55:37;24.55;42.48
64918;HTU21D;52176;44.858;38.372;2023-03-26T11:00:43;24.57;43.33
64918;HTU21D;52176;44.858;38.372;2023-03-26T11:03:27;24.33;42.32
64918;HTU21D;52176;44.858;38.372;2023-03-26T11:09:27;22.78;46.11
64918;HTU21D;52176;44.858;38.372;2023-03-26T11:11:28;22.33;46.98
64918;HTU21D;52176;44.858;38.372;2023-03-26T11:19:07;22.19;48.60
64918;HTU21D;52176;44.858;38.372;2023-03-26T11:21:47;22.47;48.04
64918;HTU21D;52176;44.858;38.372;2023-03-26T11:32:21;22.87;47.56
64918;HTU21D;52176;44.858;38.372;2023-03-26T11:34:59;23.22;47.07
64918;HTU21D;52176;44.858;38.372;2023-03-26T11:39:59;23.10;46.44
64918;HTU21D;52176;44.858;38.372;2023-03-26T11:42:26;22.86;46.99
64918;HTU21D;52176;44.858;38.372;2023-03-26T11:45:11;22.32;47.85
64918;HTU21D;52176;44.858;38.372;2023-03-26T11:48:22;21.94;49.25
64918;HTU21D;52176;44.858;38.372;2023-03-26T11:50:29;21.99;49.63
64918;HTU21D;52176;44.858;38.372;2023-03-26T11:53:10;22.14;49.52
64918;HTU21D;52176;44.858;38.372;2023-03-26T11:55:40;22.40;48.97
64918;HTU21D;52176;44.858;38.372;2023-03-26T11:58:13;22.23;49.79
64918;HTU21D;52176;44.858;38.372;2023-03-26T12:00:45;22.19;48.97
64918;HTU21D;52176;44.858;38.372;2023-03-26T12:03:16;21.92;49.51
64918;HTU21D;52176;44.858;38.372;2023-03-26T12:05:46;21.94;49.54
64918;HTU21D;52176;44.858;38.372;2023-03-26T12:08:20;21.59;50.20
64918;HTU21D;52176;44.858;38.372;2023-03-26T12:10:49;21.79;49.95
64918;HTU21D;52176;44.858;38.372;2023-03-26T12:16:14;21.15;51.58
64918;HTU21D;52176;44.858;38.372;2023-03-26T12:18:41;21.03;51.95
64918;HTU21D;52176;44.858;38.372;2023-03-26T12:21:18;21.13;51.54
64918;HTU21D;52176;44.858;38.372;2023-03-26T12:26:31;20.74;52.66
64918;HTU21D;52176;44.858;38.372;2023-03-26T12:29:03;20.70;52.74
64918;HTU21D;52176;44.858;38.372;2023-03-26T12:31:31;20.64;53.15
64918;HTU21D;52176;44.858;38.372;2023-03-26T12:34:06;20.65;53.14
64918;HTU21D;52176;44.858;38.372;2023-03-26T12:36:38;20.58;52.89
64918;HTU21D;52176;44.858;38.372;2023-03-26T12:39:47;20.48;53.01
64918;HTU21D;52176;44.858;38.372;2023-03-26T12:41:54;20.56;52.70
64918;HTU21D;52176;44.858;38.372;2023-03-26T12:44:23;20.37;52.82
64918;HTU21D;52176;44.858;38.372;2023-03-26T12:46:50;20.22;53.25
64918;HTU21D;52176;44.858;38.372;2023-03-26T12:49:19;20.12;53.70
64918;HTU21D;52176;44.858;38.372;2023-03-26T12:51:53;20.05;53.87
64918;HTU21D;52176;44.858;38.372;2023-03-26T13:15:49;19.07;56.30
64918;HTU21D;52176;44.858;38.372;2023-03-26T13:23:35;18.58;58.36
64918;HTU21D;52176;44.858;38.372;2023-03-26T13:31:19;18.38;58.54
64918;HTU21D;52176;44.858;38.372;2023-03-26T13:36:29;18.49;58.04
64918;HTU21D;52176;44.858;38.372;2023-03-26T13:44:13;17.90;58.53
64918;HTU21D;52176;44.858;38.372;2023-03-26T13:46:41;17.66;60.12
64918;HTU21D;52176;44.858;38.372;2023-03-26T13:49:11;17.72;60.51
64918;HTU21D;52176;44.858;38.372;2023-03-26T14:02:04;17.77;60.37
64918;HTU21D;52176;44.858;38.372;2023-03-26T14:04:35;17.60;61.02
64918;HTU21D;52176;44.858;38.372;2023-03-26T14:07:05;17.45;61.50
64918;HTU21D;52176;44.858;38.372;2023-03-26T14:15:00;17.03;62.88
64918;HTU21D;52176;44.858;38.372;2023-03-26T14:17:47;17.02;62.15
64918;HTU21D;52176;44.858;38.372;2023-03-26T14:25:41;16.42;62.66
64918;HTU21D;52176;44.858;38.372;2023-03-26T14:30:47;16.08;63.32
64918;HTU21D;52176;44.858;38.372;2023-03-26T14:33:41;15.90;63.71
64918;HTU21D;52176;44.858;38.372;2023-03-26T14:41:32;15.51;67.68
64918;HTU21D;52176;44.858;38.372;2023-03-26T14:46:49;15.51;66.91
64918;HTU21D;52176;44.858;38.372;2023-03-26T14:52:10;15.29;68.25
64918;HTU21D;52176;44.858;38.372;2023-03-26T14:54:41;15.29;68.27
64918;HTU21D;52176;44.858;38.372;2023-03-26T15:08:10;15.22;68.67
64918;HTU21D;52176;44.858;38.372;2023-03-26T15:13:34;15.10;69.03
64918;HTU21D;52176;44.858;38.372;2023-03-26T15:16:05;15.03;68.84
64918;HTU21D;52176;44.858;38.372;2023-03-26T15:37:22;14.45;70.39
64918;HTU21D;52176;44.858;38.372;2023-03-26T15:50:31;13.80;72.29
64918;HTU21D;52176;44.858;38.372;2023-03-26T15:53:12;13.86;70.90
64918;HTU21D;52176;44.858;38.372;2023-03-26T15:55:51;13.73;70.30
64918;HTU21D;52176;44.858;38.372;2023-03-26T15:58:23;13.52;70.22
64918;HTU21D;52176;44.858;38.372;2023-03-26T16:03:41;13.32;71.87
64918;HTU21D;52176;44.858;38.372;2023-03-26T16:06:13;13.23;71.26
64918;HTU21D;52176;44.858;38.372;2023-03-26T16:16:51;12.67;70.80
64918;HTU21D;52176;44.858;38.372;2023-03-26T16:24:20;12.78;75.35
64918;HTU21D;52176;44.858;38.372;2023-03-26T16:29:19;12.91;73.57
64918;HTU21D;52176;44.858;38.372;2023-03-26T16:34:41;12.67;72.86
64918;HTU21D;52176;44.858;38.372;2023-03-26T16:40:41;12.41;72.61
64918;HTU21D;52176;44.858;38.372;2023-03-26T16:45:20;12.19;72.41
64918;HTU21D;52176;44.858;38.372;2023-03-26T16:55:57;12.53;76.86
64918;HTU21D;52176;44.858;38.372;2023-03-26T17:01:03;12.79;76.05
64918;HTU21D;52176;44.858;38.372;2023-03-26T17:03:42;12.81;75.94
64918;HTU21D;52176;44.858;38.372;2023-03-26T17:08:55;12.86;75.90
64918;HTU21D;52176;44.858;38.372;2023-03-26T17:11:30;12.90;75.86
64918;HTU21D;52176;44.858;38.372;2023-03-26T17:16:48;12.80;74.40
64918;HTU21D;52176;44.858;38.372;2023-03-26T17:19:25;12.65;76.50
64918;HTU21D;52176;44.858;38.372;2023-03-26T17:30:36;12.88;76.36
64918;HTU21D;52176;44.858;38.372;2023-03-26T17:35:39;12.82;76.27
64918;HTU21D;52176;44.858;38.372;2023-03-26T17:43:58;12.60;74.76
64918;HTU21D;52176;44.858;38.372;2023-03-26T17:46:01;12.41;74.54
64918;HTU21D;52176;44.858;38.372;2023-03-26T17:48:28;12.23;74.47
64918;HTU21D;52176;44.858;38.372;2023-03-26T17:53:45;11.89;78.04
64918;HTU21D;52176;44.858;38.372;2023-03-26T17:56:12;11.94;78.54
64918;HTU21D;52176;44.858;38.372;2023-03-26T17:58:40;12.01;78.38
64918;HTU21D;52176;44.858;38.372;2023-03-26T18:01:31;12.08;78.23
64918;HTU21D;52176;44.858;38.372;2023-03-26T18:03:59;12.08;77.97
64918;HTU21D;52176;44.858;38.372;2023-03-26T18:09:10;12.08;76.87
64918;HTU21D;52176;44.858;38.372;2023-03-26T18:16:52;11.91;77.27
64918;HTU21D;52176;44.858;38.372;2023-03-26T18:19:19;11.75;78.46
64918;HTU21D;52176;44.858;38.372;2023-03-26T18:21:53;11.73;78.59
64918;HTU21D;52176;44.858;38.372;2023-03-26T18:24:25;11.74;78.90
64918;HTU21D;52176;44.858;38.372;2023-03-26T18:27:02;11.76;78.87
64918;HTU21D;52176;44.858;38.372;2023-03-26T18:29:30;11.76;78.66
64918;HTU21D;52176;44.858;38.372;2023-03-26T18:32:01;11.76;78.60
64918;HTU21D;52176;44.858;38.372;2023-03-26T18:34:28;11.76;78.66
64918;HTU21D;52176;44.858;38.372;2023-03-26T18:39:27;11.78;79.29
64918;HTU21D;52176;44.858;38.372;2023-03-26T18:41:53;11.87;79.19
64918;HTU21D;52176;44.858;38.372;2023-03-26T18:44:19;11.96;78.79
64918;HTU21D;52176;44.858;38.372;2023-03-26T18:46:45;11.99;78.52
64918;HTU21D;52176;44.858;38.372;2023-03-26T18:49:12;12.01;77.61
64918;HTU21D;52176;44.858;38.372;2023-03-26T18:51:38;11.92;78.48
64918;HTU21D;52176;44.858;38.372;2023-03-26T18:54:04;11.94;78.45
64918;HTU21D;52176;44.858;38.372;2023-03-26T18:56:35;11.99;78.30
64918;HTU21D;52176;44.858;38.372;2023-03-26T18:59:02;12.00;77.42
64918;HTU21D;52176;44.858;38.372;2023-03-26T19:01:29;11.94;77.05
64918;HTU21D;52176;44.858;38.372;2023-03-26T19:03:56;11.78;76.76
64918;HTU21D;52176;44.858;38.372;2023-03-26T19:06:22;11.60;78.65
64918;HTU21D;52176;44.858;38.372;2023-03-26T19:08:50;11.57;78.34
64918;HTU21D;52176;44.858;38.372;2023-03-26T19:11:18;11.53;77.98
64918;HTU21D;52176;44.858;38.372;2023-03-26T19:13:47;11.51;77.32
64918;HTU21D;52176;44.858;38.372;2023-03-26T19:16:21;11.31;78.68
64918;HTU21D;52176;44.858;38.372;2023-03-26T19:18:48;11.31;77.70
64918;HTU21D;52176;44.858;38.372;2023-03-26T19:21:15;11.17;77.38
64918;HTU21D;52176;44.858;38.372;2023-03-26T19:23:42;11.01;79.93
64918;HTU21D;52176;44.858;38.372;2023-03-26T19:26:09;11.03;80.34
64918;HTU21D;52176;44.858;38.372;2023-03-26T19:31:09;11.20;80.27
64918;HTU21D;52176;44.858;38.372;2023-03-26T19:33:38;11.32;80.07
64918;HTU21D;52176;44.858;38.372;2023-03-26T19:36:27;11.46;79.58
64918;HTU21D;52176;44.858;38.372;2023-03-26T19:41:35;11.78;78.42
64918;HTU21D;52176;44.858;38.372;2023-03-26T19:44:05;11.84;78.30
64918;HTU21D;52176;44.858;38.372;2023-03-26T19:46:35;11.87;77.50
64918;HTU21D;52176;44.858;38.372;2023-03-26T19:49:00;11.75;77.15
64918;HTU21D;52176;44.858;38.372;2023-03-26T19:51:30;11.56;77.07
64918;HTU21D;52176;44.858;38.372;2023-03-26T19:53:57;11.41;77.33
64918;HTU21D;52176;44.858;38.372;2023-03-26T19:56:25;11.24;77.39
64918;HTU21D;52176;44.858;38.372;2023-03-26T19:58:52;11.11;80.56
64918;HTU21D;52176;44.858;38.372;2023-03-26T20:03:46;11.07;78.83
64918;HTU21D;52176;44.858;38.372;2023-03-26T20:06:14;10.97;80.88
64918;HTU21D;52176;44.858;38.372;2023-03-26T20:08:40;11.05;81.32
64918;HTU21D;52176;44.858;38.372;2023-03-26T20:11:11;11.11;80.17
64918;HTU21D;52176;44.858;38.372;2023-03-26T20:13:38;11.05;81.14
64918;HTU21D;52176;44.858;38.372;2023-03-26T20:18:39;11.02;81.05
64918;HTU21D;52176;44.858;38.372;2023-03-26T20:21:09;11.07;81.03
64918;HTU21D;52176;44.858;38.372;2023-03-26T20:23:35;11.11;80.75
64918;HTU21D;52176;44.858;38.372;2023-03-26T20:26:01;11.17;79.82
64918;HTU21D;52176;44.858;38.372;2023-03-26T20:28:27;11.08;79.30
64918;HTU21D;52176;44.858;38.372;2023-03-26T20:30:53;10.95;79.04
64918;HTU21D;52176;44.858;38.372;2023-03-26T20:33:22;10.77;78.85
64918;HTU21D;52176;44.858;38.372;2023-03-26T20:35:53;10.63;78.93
64918;HTU21D;52176;44.858;38.372;2023-03-26T20:38:19;10.49;79.08
64918;HTU21D;52176;44.858;38.372;2023-03-26T20:40:45;10.42;81.38
64918;HTU21D;52176;44.858;38.372;2023-03-26T20:43:12;10.51;81.94
64918;HTU21D;52176;44.858;38.372;2023-03-26T20:45:38;10.60;81.82
64918;HTU21D;52176;44.858;38.372;2023-03-26T20:48:04;10.70;81.55
64918;HTU21D;52176;44.858;38.372;2023-03-26T20:50:30;10.79;80.54
64918;HTU21D;52176;44.858;38.372;2023-03-26T20:52:56;10.78;80.91
64918;HTU21D;52176;44.858;38.372;2023-03-26T20:55:25;10.86;80.80
64918;HTU21D;52176;44.858;38.372;2023-03-26T20:57:50;10.93;79.88
64918;HTU21D;52176;44.858;38.372;2023-03-26T21:00:17;10.93;79.45
64918;HTU21D;52176;44.858;38.372;2023-03-26T21:02:53;10.82;79.07
64918;HTU21D;52176;44.858;38.372;2023-03-26T21:05:19;10.69;80.85
64918;HTU21D;52176;44.858;38.372;2023-03-26T21:07:52;10.74;81.28
64918;HTU21D;52176;44.858;38.372;2023-03-26T21:10:18;10.81;81.04
64918;HTU21D;52176;44.858;38.372;2023-03-26T21:12:55;10.86;80.49
64918;HTU21D;52176;44.858;38.372;2023-03-26T21:15:21;10.89;80.13
64918;HTU21D;52176;44.858;38.372;2023-03-26T21:17:50;10.89;79.95
64918;HTU21D;52176;44.858;38.372;2023-03-26T21:20:17;10.92;79.79
64918;HTU21D;52176;44.858;38.372;2023-03-26T21:30:30;10.48;81.03
64918;HTU21D;52176;44.858;38.372;2023-03-26T21:32:57;10.50;81.43
64918;HTU21D;52176;44.858;38.372;2023-03-26T21:35:24;10.53;81.20
64918;HTU21D;52176;44.858;38.372;2023-03-26T21:37:50;10.60;80.20
64918;HTU21D;52176;44.858;38.372;2023-03-26T21:40:16;10.50;79.69
64918;HTU21D;52176;44.858;38.372;2023-03-26T21:42:43;10.35;81.23
64918;HTU21D;52176;44.858;38.372;2023-03-26T21:45:10;10.40;81.40
64918;HTU21D;52176;44.858;38.372;2023-03-26T21:47:36;10.45;81.27
64918;HTU21D;52176;44.858;38.372;2023-03-26T21:50:03;10.51;80.43
64918;HTU21D;52176;44.858;38.372;2023-03-26T21:52:29;10.44;81.73
64918;HTU21D;52176;44.858;38.372;2023-03-26T21:54:57;10.51;81.82
64918;HTU21D;52176;44.858;38.372;2023-03-26T21:57:35;10.59;81.72
64918;HTU21D;52176;44.858;38.372;2023-03-26T22:05:07;10.49;79.90
64918;HTU21D;52176;44.858;38.372;2023-03-26T22:07:41;10.34;79.72
64918;HTU21D;52176;44.858;38.372;2023-03-26T22:10:11;10.26;81.42
64918;HTU21D;52176;44.858;38.372;2023-03-26T22:12:37;10.39;81.32